Time;durP1;ratioP1;P1;durP2;ratioP2;P2;SDS_P1;SDS_P2;PMS_P1;PMS_P2;Temp;Humidity;BMP_temperature;BMP_pressure;BME280_temperature;BME280_humidity;BME280_pressure;Samples;Min_cycle;Max_cycle;Signal;HPM_P1;HPM_P2
2022/05/25 00:01:01;;;;;;;7.70;5.70;;;12.10;98.20;;;;;;5071717;28;20558;-44
2022/05/25 00:03:29;;;;;;;6.18;4.05;;;12.10;98.60;;;;;;5064286;28;20096;-43
2022/05/25 00:05:57;;;;;;;6.03;5.43;;;12.00;98.60;;;;;;5072381;28;20422;-42
2022/05/25 00:08:23;;;;;;;9.77;6.82;;;12.00;98.70;;;;;;5072133;28;20762;-43
2022/05/25 00:10:51;;;;;;;9.95;7.45;;;11.90;99.30;;;;;;5053377;28;20149;-43
2022/05/25 00:13:18;;;;;;;7.47;5.72;;;11.90;99.70;;;;;;5053017;28;20052;-42
2022/05/25 00:15:45;;;;;;;7.35;5.07;;;11.90;99.80;;;;;;5053137;28;20068;-43
2022/05/25 00:18:12;;;;;;;6.03;5.20;;;11.80;99.60;;;;;;5049842;28;20044;-43
2022/05/25 00:20:38;;;;;;;6.00;4.78;;;11.80;99.50;;;;;;5068255;28;20055;-44
2022/05/25 00:23:04;;;;;;;8.88;6.10;;;11.80;99.40;;;;;;5053043;28;20052;-43
2022/05/25 00:25:33;;;;;;;7.85;5.95;;;11.80;99.90;;;;;;5050073;28;20074;-43
2022/05/25 00:28:01;;;;;;;8.40;5.03;;;11.80;99.90;;;;;;5069992;28;20052;-43
2022/05/25 00:30:28;;;;;;;9.27;5.75;;;11.70;99.80;;;;;;5053167;28;20055;-44
2022/05/25 00:32:54;;;;;;;7.95;5.80;;;11.70;99.90;;;;;;5070535;28;20055;-44
2022/05/25 00:35:22;;;;;;;12.13;7.40;;;11.70;99.90;;;;;;5053427;28;20134;-44
2022/05/25 00:37:48;;;;;;;8.00;5.72;;;11.70;99.90;;;;;;5070507;28;20055;-43
2022/05/25 00:40:16;;;;;;;7.68;6.82;;;11.60;99.90;;;;;;5069616;28;20049;-44
2022/05/25 00:42:43;;;;;;;8.57;6.75;;;11.60;99.90;;;;;;5051690;28;20040;-44
2022/05/25 00:45:11;;;;;;;8.50;6.65;;;11.60;99.90;;;;;;5071363;28;20055;-44
2022/05/25 00:47:38;;;;;;;7.88;5.25;;;11.50;99.90;;;;;;5070023;28;20041;-44
2022/05/25 00:50:06;;;;;;;10.98;5.75;;;11.50;99.90;;;;;;5070779;28;20055;-44
2022/05/25 00:52:32;;;;;;;8.05;6.60;;;11.50;99.90;;;;;;5053319;28;20053;-43
2022/05/25 00:55:00;;;;;;;6.03;5.40;;;11.50;99.90;;;;;;5053541;28;20044;-44
2022/05/25 00:57:28;;;;;;;6.60;4.50;;;11.50;99.90;;;;;;5071306;28;20058;-44
2022/05/25 00:59:59;;;;;;;7.95;6.20;;;11.50;99.90;;;;;;5069876;28;20044;-43
2022/05/25 01:02:28;;;;;;;5.72;4.60;;;11.50;99.90;;;;;;5052869;28;20136;-44
2022/05/25 01:04:55;;;;;;;5.55;4.43;;;11.50;99.90;;;;;;5051942;28;20056;-43
2022/05/25 01:07:33;;;;;;;6.07;5.47;;;11.40;99.90;;;;;;5052981;28;20051;-43
2022/05/25 01:10:11;;;;;;;7.43;4.72;;;11.50;99.90;;;;;;5034643;28;20064;-44
2022/05/25 01:12:45;;;;;;;8.13;4.75;;;11.40;99.90;;;;;;5067602;28;20061;-44
2022/05/25 01:15:15;;;;;;;6.15;5.07;;;11.40;99.90;;;;;;5063115;28;20531;-44
2022/05/25 01:17:48;;;;;;;6.07;5.20;;;11.40;99.90;;;;;;5055982;28;20493;-44
2022/05/25 01:20:19;;;;;;;6.43;5.05;;;11.40;99.90;;;;;;5075278;28;20052;-44
2022/05/25 01:22:59;;;;;;;7.93;4.63;;;11.40;99.90;;;;;;5056561;28;20059;-44
2022/05/25 01:25:44;;;;;;;8.75;5.35;;;11.30;99.90;;;;;;5074387;28;20053;-44
2022/05/25 01:28:14;;;;;;;9.13;6.30;;;11.30;99.90;;;;;;5073281;28;20072;-44
2022/05/25 01:30:42;;;;;;;6.95;5.63;;;11.30;99.90;;;;;;5058026;28;20048;-44
2022/05/25 01:33:14;;;;;;;11.82;6.55;;;11.20;99.90;;;;;;5073834;28;20150;-44
2022/05/25 01:35:49;;;;;;;7.93;7.05;;;11.20;99.90;;;;;;5071267;28;20408;-43
2022/05/25 01:38:18;;;;;;;8.13;7.20;;;11.10;99.90;;;;;;5070937;28;20067;-44
2022/05/25 01:40:45;;;;;;;14.38;6.82;;;11.10;99.90;;;;;;5074762;28;20059;-44
2022/05/25 01:43:15;;;;;;;12.02;6.90;;;11.00;99.90;;;;;;5075037;28;20044;-44
2022/05/25 01:45:45;;;;;;;10.88;7.90;;;11.00;99.90;;;;;;5073154;28;20051;-43
2022/05/25 01:48:11;;;;;;;10.23;7.93;;;10.90;99.90;;;;;;5074256;28;20044;-43
2022/05/25 01:50:39;;;;;;;10.88;7.40;;;10.90;99.90;;;;;;5055672;28;20056;-43
2022/05/25 01:53:07;;;;;;;10.05;7.32;;;10.90;99.90;;;;;;5073017;28;20040;-42
2022/05/25 01:55:36;;;;;;;8.07;6.82;;;10.90;99.90;;;;;;5074521;28;20492;-44
2022/05/25 01:58:03;;;;;;;10.43;8.38;;;10.90;99.90;;;;;;5074748;28;20392;-44
2022/05/25 02:00:32;;;;;;;9.52;8.55;;;10.80;99.90;;;;;;5070169;28;20056;-44
2022/05/25 02:05:49;;;;;;;11.02;8.73;;;10.80;99.90;;;;;;5074459;28;20482;-44
2022/05/25 02:08:19;;;;;;;10.93;8.80;;;10.80;99.90;;;;;;5055469;28;20060;-44
2022/05/25 02:10:50;;;;;;;10.07;9.00;;;10.70;99.90;;;;;;5070881;28;20052;-43
2022/05/25 02:13:31;;;;;;;13.57;9.80;;;10.70;99.90;;;;;;5073106;28;20503;-43
2022/05/25 02:16:06;;;;;;;10.57;9.25;;;10.70;99.90;;;;;;5055546;28;20512;-44
2022/05/25 02:18:39;;;;;;;12.63;8.60;;;10.70;99.90;;;;;;5068712;28;20045;-43
2022/05/25 02:21:08;;;;;;;16.40;9.20;;;10.70;99.90;;;;;;5043081;28;20378;-43
2022/05/25 02:23:38;;;;;;;13.88;8.65;;;10.70;99.90;;;;;;5069187;28;20527;-43
2022/05/25 02:26:07;;;;;;;17.50;10.27;;;10.60;99.90;;;;;;5074004;28;20059;-42
2022/05/25 02:28:35;;;;;;;13.32;10.65;;;10.70;99.90;;;;;;5072169;28;20045;-43
2022/05/25 02:31:02;;;;;;;11.90;9.32;;;10.60;99.90;;;;;;5067697;28;20044;-43
2022/05/25 02:33:31;;;;;;;11.90;8.57;;;10.60;99.90;;;;;;5073088;28;20048;-44
2022/05/25 02:35:59;;;;;;;12.05;10.70;;;10.60;99.90;;;;;;5073945;28;20040;-43
2022/05/25 02:38:26;;;;;;;14.23;10.30;;;10.60;99.90;;;;;;5073438;28;20040;-43
2022/05/25 02:41:03;;;;;;;13.95;11.35;;;10.60;99.90;;;;;;5055291;28;20055;-44
2022/05/25 02:43:29;;;;;;;17.52;12.13;;;10.50;99.90;;;;;;5071939;28;20052;-43
2022/05/25 02:45:56;;;;;;;15.18;10.98;;;10.50;99.90;;;;;;5074391;28;20123;-43
2022/05/25 02:48:23;;;;;;;14.60;12.10;;;10.40;99.90;;;;;;5072744;28;20046;-44
2022/05/25 02:50:49;;;;;;;14.25;11.73;;;10.40;99.90;;;;;;5073722;28;20048;-44
2022/05/25 02:53:20;;;;;;;11.50;8.90;;;10.40;99.90;;;;;;5072488;28;20481;-44
2022/05/25 02:55:46;;;;;;;18.77;12.52;;;10.50;99.90;;;;;;5073524;28;20056;-44
2022/05/25 02:58:13;;;;;;;12.18;10.60;;;10.40;99.90;;;;;;5053865;28;20044;-44
2022/05/25 03:00:40;;;;;;;16.00;11.82;;;10.40;99.90;;;;;;5071799;28;20045;-44
2022/05/25 03:03:06;;;;;;;14.88;11.68;;;10.40;99.90;;;;;;5053379;28;20049;-43
2022/05/25 03:05:33;;;;;;;15.95;12.10;;;10.30;99.90;;;;;;5073903;28;20059;-44
2022/05/25 03:08:00;;;;;;;15.18;12.30;;;10.40;99.90;;;;;;5055657;28;20062;-44
2022/05/25 03:10:28;;;;;;;18.17;11.80;;;10.40;99.90;;;;;;5073182;28;20054;-44
2022/05/25 03:12:55;;;;;;;16.67;11.90;;;10.40;99.90;;;;;;5072230;28;20127;-44
2022/05/25 03:15:21;;;;;;;15.90;11.20;;;10.40;99.90;;;;;;5073743;28;20477;-43
2022/05/25 03:17:48;;;;;;;16.65;12.88;;;10.30;99.90;;;;;;5071050;28;20501;-44
2022/05/25 03:20:15;;;;;;;16.35;12.65;;;10.40;99.90;;;;;;5060622;28;20052;-44
2022/05/25 03:22:44;;;;;;;14.40;10.60;;;10.30;99.90;;;;;;5069587;28;20052;-44
2022/05/25 03:25:11;;;;;;;14.85;11.60;;;10.30;99.90;;;;;;5070688;28;20048;-44
2022/05/25 03:27:39;;;;;;;16.75;12.60;;;10.40;99.90;;;;;;5053211;28;20055;-42
2022/05/25 03:30:06;;;;;;;16.00;12.57;;;10.30;99.90;;;;;;5071278;28;20040;-43
2022/05/25 03:32:33;;;;;;;19.27;12.95;;;10.30;99.90;;;;;;5054191;28;20480;-42
2022/05/25 03:35:00;;;;;;;18.30;12.40;;;10.30;99.90;;;;;;5073166;28;20172;-44
2022/05/25 03:37:27;;;;;;;16.55;10.85;;;10.30;99.90;;;;;;5054244;28;20113;-43
2022/05/25 03:39:54;;;;;;;18.05;13.60;;;10.40;99.90;;;;;;5070138;28;20049;-44
2022/05/25 03:42:20;;;;;;;15.73;12.30;;;10.30;99.90;;;;;;5070920;28;20417;-43
2022/05/25 03:44:48;;;;;;;18.77;13.88;;;10.30;99.90;;;;;;5052957;28;20057;-43
2022/05/25 03:47:15;;;;;;;18.25;13.75;;;10.30;99.90;;;;;;5071671;28;20048;-43
2022/05/25 03:49:42;;;;;;;18.42;13.98;;;10.30;99.90;;;;;;5068708;28;20084;-44
2022/05/25 03:52:10;;;;;;;14.73;12.90;;;10.30;99.90;;;;;;5049976;28;20056;-44
2022/05/25 03:54:37;;;;;;;16.27;13.05;;;10.30;99.90;;;;;;5068361;28;20064;-43
2022/05/25 03:57:05;;;;;;;24.38;14.27;;;10.20;99.90;;;;;;5072284;28;20044;-43
2022/05/25 03:59:31;;;;;;;17.77;13.38;;;10.30;99.90;;;;;;5071378;28;20058;-43
2022/05/25 04:01:59;;;;;;;18.02;13.13;;;10.30;99.90;;;;;;5070180;28;20052;-43
2022/05/25 04:04:26;;;;;;;20.05;14.43;;;10.30;99.90;;;;;;5063974;28;20499;-43
2022/05/25 04:06:53;;;;;;;16.63;12.57;;;10.30;99.90;;;;;;5044997;28;20070;-44
2022/05/25 04:09:19;;;;;;;20.70;14.48;;;10.30;99.90;;;;;;5071502;28;20060;-43
2022/05/25 04:11:46;;;;;;;18.88;14.02;;;10.30;99.90;;;;;;5070955;28;20058;-44
2022/05/25 04:14:15;;;;;;;18.13;14.07;;;10.30;99.90;;;;;;5072820;28;20135;-44
2022/05/25 04:16:42;;;;;;;19.45;14.18;;;10.20;99.90;;;;;;5070844;28;20049;-43
2022/05/25 04:19:10;;;;;;;18.08;13.43;;;10.30;99.90;;;;;;5063136;28;20041;-43
2022/05/25 04:21:36;;;;;;;22.38;13.63;;;10.30;99.90;;;;;;5044169;28;20057;-43
2022/05/25 04:24:03;;;;;;;20.95;14.68;;;10.30;99.90;;;;;;5053235;28;20393;-43
2022/05/25 04:26:31;;;;;;;23.52;14.57;;;10.30;99.90;;;;;;5068962;28;20044;-43
2022/05/25 04:28:57;;;;;;;21.95;14.30;;;10.30;99.90;;;;;;5039142;28;20135;-44
2022/05/25 04:31:24;;;;;;;17.23;14.25;;;10.30;99.90;;;;;;5052580;28;20052;-44
2022/05/25 04:33:51;;;;;;;20.00;14.82;;;10.30;99.90;;;;;;5064479;28;20047;-43
2022/05/25 04:36:19;;;;;;;19.88;13.65;;;10.40;99.90;;;;;;5066340;28;20527;-44
2022/05/25 04:38:46;;;;;;;19.05;13.70;;;10.40;99.90;;;;;;5047682;28;20048;-43
2022/05/25 04:41:12;;;;;;;20.05;15.18;;;10.40;99.90;;;;;;5066216;28;20068;-42
2022/05/25 04:43:39;;;;;;;22.15;14.85;;;10.60;99.90;;;;;;5067899;28;20056;-43
2022/05/25 04:46:07;;;;;;;23.17;14.70;;;10.50;99.90;;;;;;5066282;28;20113;-43
2022/05/25 04:48:34;;;;;;;19.90;13.60;;;10.50;99.90;;;;;;5068469;28;20044;-44
2022/05/25 04:51:01;;;;;;;21.88;14.68;;;10.60;99.90;;;;;;5054156;28;20055;-43
2022/05/25 04:53:29;;;;;;;22.45;14.98;;;10.60;99.90;;;;;;5072668;28;20048;-44
2022/05/25 04:58:41;;;;;;;19.15;14.02;;;10.70;99.90;;;;;;5050935;28;20163;-44
2022/05/25 05:01:09;;;;;;;18.58;13.98;;;10.70;99.90;;;;;;5067145;28;20045;-43
2022/05/25 05:03:35;;;;;;;23.73;14.35;;;10.90;99.90;;;;;;5069227;28;20047;-43
2022/05/25 05:06:02;;;;;;;20.70;14.57;;;10.90;99.90;;;;;;5067571;28;20049;-43
2022/05/25 05:08:30;;;;;;;23.15;15.15;;;10.90;99.90;;;;;;5046856;28;20503;-43
2022/05/25 05:10:57;;;;;;;16.88;12.88;;;11.00;99.90;;;;;;5070626;28;20059;-43
2022/05/25 05:13:24;;;;;;;19.13;14.43;;;11.00;99.90;;;;;;5063487;28;20052;-43
2022/05/25 05:15:52;;;;;;;18.48;14.10;;;11.10;99.90;;;;;;5050480;28;20139;-42
2022/05/25 05:18:19;;;;;;;20.75;14.10;;;11.10;99.90;;;;;;5069035;28;20080;-43
2022/05/25 05:20:45;;;;;;;20.42;13.50;;;11.20;99.90;;;;;;5054814;28;20053;-43
2022/05/25 05:23:12;;;;;;;22.48;13.65;;;11.30;99.90;;;;;;5033963;28;20049;-43
2022/05/25 05:25:40;;;;;;;17.50;12.85;;;11.40;99.90;;;;;;5051388;28;20136;-43
2022/05/25 05:28:08;;;;;;;18.55;11.88;;;11.50;99.90;;;;;;5062985;28;20059;-44
2022/05/25 05:30:36;;;;;;;21.98;13.25;;;11.60;99.90;;;;;;5058234;28;20044;-44
2022/05/25 05:33:03;;;;;;;18.35;12.57;;;11.70;99.90;;;;;;5060845;28;20102;-44
2022/05/25 05:35:30;;;;;;;18.20;12.27;;;11.90;99.90;;;;;;5091166;28;20505;-44
2022/05/25 05:37:57;;;;;;;16.60;11.77;;;12.00;99.90;;;;;;5091509;28;20074;-44
2022/05/25 05:40:23;;;;;;;17.83;11.98;;;12.10;99.90;;;;;;5091429;28;20044;-44
2022/05/25 05:42:51;;;;;;;18.50;12.15;;;12.20;99.90;;;;;;5049784;28;20057;-44
2022/05/25 05:45:20;;;;;;;19.77;12.55;;;12.30;99.90;;;;;;5049110;28;20480;-43
2022/05/25 05:47:49;;;;;;;17.73;12.23;;;12.40;99.90;;;;;;5050985;28;20096;-43
2022/05/25 05:50:16;;;;;;;17.77;12.20;;;12.50;99.90;;;;;;5050787;28;20049;-43
2022/05/25 05:52:43;;;;;;;21.65;12.95;;;12.60;99.90;;;;;;5044802;28;20059;-44
2022/05/25 05:55:10;;;;;;;19.17;12.00;;;12.70;99.90;;;;;;5050736;28;20132;-43
2022/05/25 05:57:37;;;;;;;17.25;11.88;;;12.80;99.90;;;;;;5051160;28;20064;-44
2022/05/25 06:00:06;;;;;;;20.75;11.90;;;12.90;99.90;;;;;;5045324;28;20054;-43
2022/05/25 06:02:33;;;;;;;18.23;12.15;;;13.00;99.90;;;;;;5052799;28;20425;-42
2022/05/25 06:04:59;;;;;;;20.05;12.50;;;13.10;99.90;;;;;;5053728;28;20049;-43
2022/05/25 06:07:26;;;;;;;18.58;11.65;;;13.30;99.90;;;;;;5054577;28;20146;-43
2022/05/25 06:09:53;;;;;;;17.75;12.10;;;13.40;99.90;;;;;;5053631;28;20049;-43
2022/05/25 06:12:19;;;;;;;21.33;12.93;;;13.50;99.90;;;;;;5054387;28;20067;-43
2022/05/25 06:14:46;;;;;;;16.40;11.95;;;13.60;99.90;;;;;;5054301;28;20389;-44
2022/05/25 06:19:58;;;;;;;22.17;12.18;;;13.80;99.90;;;;;;5053787;28;20048;-44
2022/05/25 06:22:26;;;;;;;22.17;12.43;;;13.90;99.90;;;;;;5057597;28;20054;-43
2022/05/25 06:24:53;;;;;;;19.00;11.32;;;14.00;99.90;;;;;;5056142;28;20102;-43
2022/05/25 06:27:23;;;;;;;22.30;11.30;;;14.20;99.90;;;;;;5056075;28;20536;-43
2022/05/25 06:29:50;;;;;;;16.00;11.38;;;14.30;99.90;;;;;;5073711;28;20129;-43
2022/05/25 06:32:19;;;;;;;18.88;11.30;;;14.40;99.90;;;;;;5072706;28;20098;-43
2022/05/25 06:34:48;;;;;;;15.88;10.55;;;14.50;99.90;;;;;;5055496;28;20063;-43
2022/05/25 06:37:15;;;;;;;16.70;11.40;;;14.60;99.90;;;;;;5055768;28;20044;-42
2022/05/25 06:39:42;;;;;;;18.15;10.95;;;14.80;99.90;;;;;;5073634;28;20049;-43
2022/05/25 06:42:08;;;;;;;14.55;10.65;;;14.90;99.90;;;;;;5073891;28;20059;-42
2022/05/25 06:44:35;;;;;;;16.92;11.05;;;15.00;99.90;;;;;;5073535;28;20135;-43
2022/05/25 06:47:03;;;;;;;17.48;11.00;;;15.10;99.90;;;;;;5073957;28;20052;-43
2022/05/25 06:49:31;;;;;;;17.83;11.52;;;15.10;99.90;;;;;;5054443;28;20052;-43
2022/05/25 06:51:58;;;;;;;16.85;10.98;;;15.20;99.90;;;;;;5053588;28;20051;-43
2022/05/25 06:54:24;;;;;;;22.20;10.60;;;15.30;99.90;;;;;;5053601;28;20401;-43
2022/05/25 06:56:51;;;;;;;14.40;10.10;;;15.50;99.90;;;;;;5053398;28;20045;-43
2022/05/25 06:59:18;;;;;;;11.82;8.70;;;15.60;99.90;;;;;;5059302;28;20080;-44
2022/05/25 07:01:46;;;;;;;15.70;9.20;;;15.70;99.90;;;;;;5055843;28;20076;-44
2022/05/25 07:04:12;;;;;;;15.13;8.07;;;15.80;99.90;;;;;;5073360;28;20113;-43
2022/05/25 07:06:40;;;;;;;16.17;8.90;;;15.90;99.90;;;;;;5090000;28;20062;-44
2022/05/25 07:09:08;;;;;;;13.05;8.55;;;16.10;99.90;;;;;;5093278;28;20460;-44
2022/05/25 07:11:34;;;;;;;17.25;9.20;;;16.10;99.90;;;;;;5073918;28;20134;-43
2022/05/25 07:14:01;;;;;;;11.27;7.65;;;16.20;99.90;;;;;;5092427;28;20475;-43
2022/05/25 07:16:28;;;;;;;13.05;7.93;;;16.30;99.90;;;;;;5093328;28;20453;-44
2022/05/25 07:18:55;;;;;;;13.13;7.57;;;16.50;99.90;;;;;;5093265;28;20138;-44
2022/05/25 07:21:22;;;;;;;8.32;7.32;;;16.60;99.80;;;;;;5062442;28;20387;-43
2022/05/25 07:23:51;;;;;;;10.63;7.85;;;16.70;99.50;;;;;;5035452;28;20146;-44
2022/05/25 07:26:18;;;;;;;13.45;7.82;;;16.80;99.00;;;;;;5053009;28;20059;-43
2022/05/25 07:28:45;;;;;;;12.60;7.63;;;16.90;99.00;;;;;;5052663;28;20417;-43
2022/05/25 07:31:15;;;;;;;11.55;8.02;;;17.00;99.00;;;;;;5068209;28;20052;-44
2022/05/25 07:33:43;;;;;;;9.10;7.43;;;17.20;98.90;;;;;;5072701;28;20044;-44
2022/05/25 07:36:10;;;;;;;11.85;7.35;;;17.40;98.50;;;;;;5072693;28;20518;-44
2022/05/25 07:38:36;;;;;;;17.13;7.32;;;17.50;97.90;;;;;;5072870;28;20056;-43
2022/05/25 07:41:04;;;;;;;10.73;7.00;;;17.60;97.80;;;;;;5072497;28;20053;-43
2022/05/25 07:43:32;;;;;;;11.48;6.68;;;17.80;97.30;;;;;;5072658;28;20059;-43
2022/05/25 07:45:59;;;;;;;10.65;6.53;;;17.80;97.00;;;;;;5054928;28;20048;-43
2022/05/25 07:48:26;;;;;;;8.00;5.35;;;18.00;96.40;;;;;;5072588;28;20411;-43
2022/05/25 07:50:52;;;;;;;7.30;5.38;;;18.10;96.00;;;;;;5053740;28;20063;-44
2022/05/25 07:56:05;;;;;;;10.77;5.53;;;18.40;95.30;;;;;;5072340;28;20060;-44
2022/05/25 07:58:32;;;;;;;11.18;5.28;;;18.30;94.40;;;;;;5072503;28;20063;-43
2022/05/25 08:01:00;;;;;;;9.10;4.85;;;18.40;94.30;;;;;;5072553;28;20052;-43
2022/05/25 08:06:10;;;;;;;10.73;5.07;;;18.30;94.10;;;;;;5072159;28;20080;-43
2022/05/25 08:08:37;;;;;;;7.60;4.05;;;18.40;94.10;;;;;;5089574;28;20393;-43
2022/05/25 08:11:07;;;;;;;8.93;5.00;;;18.40;93.90;;;;;;5072890;28;20063;-43
2022/05/25 08:13:34;;;;;;;9.85;5.15;;;18.50;93.70;;;;;;5074220;28;20060;-43
2022/05/25 08:16:01;;;;;;;9.40;4.95;;;18.60;93.10;;;;;;5092379;28;20052;-43
2022/05/25 08:18:27;;;;;;;8.55;4.55;;;18.60;93.20;;;;;;5092362;28;20496;-44
2022/05/25 08:20:54;;;;;;;7.95;4.28;;;18.70;92.90;;;;;;5051371;28;20059;-44
2022/05/25 08:23:21;;;;;;;7.45;4.78;;;18.80;92.70;;;;;;5034058;28;20114;-43
2022/05/25 08:25:48;;;;;;;7.45;5.03;;;19.00;92.80;;;;;;5033969;28;20053;-44
2022/05/25 08:28:16;;;;;;;7.60;4.78;;;19.10;92.20;;;;;;5034409;28;20136;-44
2022/05/25 08:30:43;;;;;;;6.53;3.72;;;19.10;92.10;;;;;;5063322;28;20052;-44
2022/05/25 08:33:10;;;;;;;6.88;4.03;;;19.20;91.80;;;;;;5049681;28;20071;-44
2022/05/25 08:35:37;;;;;;;8.00;4.18;;;19.30;91.80;;;;;;5034252;28;20056;-44
2022/05/25 08:38:03;;;;;;;8.00;3.70;;;19.50;90.90;;;;;;5051633;28;20063;-44
2022/05/25 08:40:31;;;;;;;7.93;3.70;;;19.60;91.10;;;;;;5051813;28;20072;-44
2022/05/25 08:42:59;;;;;;;9.32;3.35;;;19.70;91.10;;;;;;5041940;28;20397;-44
2022/05/25 08:45:29;;;;;;;7.00;3.50;;;19.80;91.00;;;;;;5072348;28;20049;-44
2022/05/25 08:47:57;;;;;;;7.45;3.70;;;20.00;91.40;;;;;;5044146;28;20152;-44
2022/05/25 08:50:24;;;;;;;7.28;3.30;;;20.20;90.60;;;;;;5051057;28;20071;-44
2022/05/25 08:52:51;;;;;;;7.32;2.92;;;20.30;90.90;;;;;;5050431;28;20056;-44
2022/05/25 08:55:23;;;;;;;6.50;2.97;;;20.30;90.10;;;;;;5050154;28;20045;-44
2022/05/25 08:57:52;;;;;;;5.00;2.53;;;20.20;88.80;;;;;;5051898;28;20045;-45
2022/05/25 09:00:19;;;;;;;7.78;2.60;;;20.10;87.80;;;;;;5050146;28;20049;-44
2022/05/25 09:02:52;;;;;;;7.82;2.70;;;20.00;88.00;;;;;;5050345;28;20067;-44
2022/05/25 09:05:21;;;;;;;5.43;3.17;;;19.90;87.90;;;;;;5051673;28;20059;-44
2022/05/25 09:07:51;;;;;;;6.78;2.80;;;19.90;89.10;;;;;;5064766;28;20044;-44
2022/05/25 09:10:18;;;;;;;5.85;2.75;;;20.00;89.00;;;;;;5053673;28;20131;-44
2022/05/25 09:12:46;;;;;;;5.95;2.75;;;20.10;89.30;;;;;;5017882;28;20049;-44
2022/05/25 09:15:16;;;;;;;5.53;2.47;;;20.20;89.00;;;;;;5009931;28;20502;-44
2022/05/25 09:17:44;;;;;;;6.47;2.50;;;20.30;88.70;;;;;;5010883;28;20545;-44
2022/05/25 09:20:14;;;;;;;6.78;2.25;;;20.40;87.90;;;;;;5009312;28;20383;-44
2022/05/25 09:22:42;;;;;;;3.92;2.42;;;20.30;87.00;;;;;;5011139;28;20475;-45
2022/05/25 09:25:10;;;;;;;5.63;2.55;;;20.30;87.30;;;;;;5022040;28;20053;-44
2022/05/25 09:27:39;;;;;;;5.13;2.72;;;20.20;85.90;;;;;;5031741;28;20055;-43
2022/05/25 09:30:07;;;;;;;4.25;2.60;;;20.10;85.90;;;;;;5031356;28;20045;-44
2022/05/25 09:32:40;;;;;;;6.47;2.83;;;20.10;85.20;;;;;;5029722;28;20136;-44
2022/05/25 09:35:09;;;;;;;4.70;2.40;;;20.10;85.30;;;;;;5014496;28;20099;-44
2022/05/25 09:37:41;;;;;;;7.25;2.65;;;20.20;86.60;;;;;;5032593;28;20049;-44
2022/05/25 09:40:10;;;;;;;;;;;20.30;85.20;;;;;;5032883;28;20157;-44
2022/05/25 09:42:37;;;;;;;8.90;2.42;;;20.20;86.40;;;;;;5026409;28;19921;-44
2022/05/25 09:45:09;;;;;;;6.25;3.17;;;20.20;87.30;;;;;;5015377;28;20053;-44
2022/05/25 09:47:41;;;;;;;3.53;2.60;;;20.30;86.40;;;;;;5025032;28;20050;-44
2022/05/25 09:50:08;;;;;;;5.55;2.67;;;20.30;82.00;;;;;;5033680;28;20057;-44
2022/05/25 09:52:36;;;;;;;4.63;2.60;;;20.20;84.20;;;;;;5029875;28;20054;-44
2022/05/25 09:55:06;;;;;;;6.75;2.78;;;20.40;84.30;;;;;;5014907;28;20150;-44
2022/05/25 09:57:35;;;;;;;5.13;3.00;;;20.50;84.30;;;;;;5018122;28;20490;-44
2022/05/25 10:00:04;;;;;;;4.78;2.88;;;20.60;83.20;;;;;;5034922;28;20060;-44
2022/05/25 10:02:34;;;;;;;4.65;2.90;;;20.50;83.50;;;;;;5016892;28;20058;-44
2022/05/25 10:05:15;;;;;;;5.63;2.72;;;20.50;84.70;;;;;;5034228;28;20138;-44
2022/05/25 10:07:51;;;;;;;7.22;2.80;;;20.50;84.00;;;;;;5033626;28;20068;-44
2022/05/25 10:10:25;;;;;;;9.48;2.55;;;20.50;83.30;;;;;;5034415;28;20056;-44
2022/05/25 10:12:59;;;;;;;3.97;2.10;;;20.50;81.40;;;;;;5058641;28;20518;-44
2022/05/25 10:15:29;;;;;;;4.22;2.17;;;20.50;80.20;;;;;;5056430;28;20091;-44
2022/05/25 10:17:59;;;;;;;4.53;2.15;;;20.40;81.00;;;;;;5074240;28;20052;-43
2022/05/25 10:20:27;;;;;;;5.10;2.22;;;20.30;80.40;;;;;;5052884;28;20515;-44
2022/05/25 10:23:02;;;;;;;4.45;2.15;;;20.10;79.90;;;;;;5052861;28;20053;-44
2022/05/25 10:25:34;;;;;;;7.97;2.20;;;19.90;80.20;;;;;;5055396;28;20062;-44
2022/05/25 10:28:01;;;;;;;6.03;2.17;;;19.90;80.20;;;;;;5074752;28;20491;-44
2022/05/25 10:38:52;;;;;;;6.25;2.47;;;20.00;81.40;;;;;;5069858;28;20049;-44
2022/05/25 10:41:41;;;;;;;5.85;2.00;;;20.20;80.80;;;;;;5074699;28;20455;-44
2022/05/25 10:44:11;;;;;;;5.85;2.17;;;20.40;80.70;;;;;;5074833;28;20053;-44
2022/05/25 10:46:38;;;;;;;3.92;2.28;;;20.50;79.50;;;;;;5071667;28;20055;-44
2022/05/25 10:49:07;;;;;;;4.70;2.13;;;20.80;78.90;;;;;;5054584;28;20059;-44
2022/05/25 10:51:38;;;;;;;5.55;2.50;;;20.90;77.40;;;;;;5054672;28;20527;-44
2022/05/25 10:56:54;;;;;;;8.25;2.47;;;21.10;75.40;;;;;;5054467;28;20053;-44
2022/05/25 10:59:22;;;;;;;4.32;2.70;;;21.10;75.00;;;;;;5058492;28;20041;-45
2022/05/25 11:01:57;;;;;;;3.75;2.30;;;21.10;75.20;;;;;;5053694;28;20048;-44
2022/05/25 11:04:36;;;;;;;5.30;1.98;;;21.10;73.60;;;;;;5054523;28;20520;-44
2022/05/25 11:07:13;;;;;;;5.95;2.72;;;21.10;73.30;;;;;;5069659;28;20059;-44
2022/05/25 11:09:52;;;;;;;10.32;3.35;;;21.20;72.70;;;;;;5053336;28;20059;-45
2022/05/25 11:12:23;;;;;;;7.65;3.15;;;21.20;73.60;;;;;;5058618;28;20500;-45
2022/05/25 11:14:57;;;;;;;9.45;2.95;;;21.30;73.80;;;;;;5062748;28;20497;-44
2022/05/25 11:17:51;;;;;;;6.38;3.00;;;21.20;71.70;;;;;;5069427;28;20055;-44
2022/05/25 11:20:22;;;;;;;6.35;3.25;;;21.30;71.30;;;;;;5051020;28;20044;-44
2022/05/25 11:23:09;;;;;;;7.85;3.50;;;21.30;73.10;;;;;;5074278;28;20147;-44
2022/05/25 11:25:41;;;;;;;7.40;3.90;;;21.30;72.10;;;;;;5054616;28;20055;-44
2022/05/25 11:28:29;;;;;;;9.48;3.15;;;21.30;71.30;;;;;;5056338;28;20059;-44
2022/05/25 11:31:06;;;;;;;5.38;3.38;;;21.20;69.20;;;;;;5073019;28;20669;-44
2022/05/25 11:33:44;;;;;;;5.22;3.25;;;21.10;70.80;;;;;;5056000;28;20052;-43
2022/05/25 11:36:16;;;;;;;7.65;3.55;;;20.90;70.80;;;;;;5072868;28;20052;-44
2022/05/25 11:38:51;;;;;;;5.20;3.20;;;20.80;71.50;;;;;;5071264;28;20048;-44
2022/05/25 11:41:27;;;;;;;8.25;3.67;;;20.70;72.00;;;;;;5053582;28;20040;-44
2022/05/25 11:44:05;;;;;;;5.82;3.60;;;20.60;70.80;;;;;;5070701;28;20139;-45
2022/05/25 11:46:38;;;;;;;6.18;3.45;;;20.50;71.50;;;;;;5041222;28;20056;-44
2022/05/25 11:49:30;;;;;;;13.32;3.97;;;20.40;73.40;;;;;;5063657;28;20403;-44
2022/05/25 11:52:00;;;;;;;6.78;4.25;;;20.30;74.30;;;;;;5060999;28;20044;-44
2022/05/25 11:54:34;;;;;;;10.90;4.05;;;20.00;75.70;;;;;;5063869;28;20377;-44
2022/05/25 11:57:03;;;;;;;8.27;4.68;;;19.60;78.20;;;;;;5068318;28;20071;-43
2022/05/25 12:00:04;;;;;;;11.23;5.20;;;19.20;82.20;;;;;;5062630;28;20132;-44
2022/05/25 12:02:45;;;;;;;12.30;6.20;;;19.10;85.70;;;;;;5043950;28;20053;-45
2022/05/25 12:05:19;;;;;;;10.27;5.25;;;19.00;87.40;;;;;;5036923;28;21316;-44
2022/05/25 12:08:38;;;;;;;10.30;6.22;;;19.00;90.20;;;;;;5034094;28;20048;-43
2022/05/25 12:11:07;;;;;;;10.40;5.95;;;19.30;91.00;;;;;;4976081;28;20046;-45
2022/05/25 12:13:38;;;;;;;10.35;6.30;;;19.40;90.60;;;;;;5064891;28;20053;-44
2022/05/25 12:16:09;;;;;;;6.40;4.83;;;19.60;90.90;;;;;;5041711;28;20040;-44
2022/05/25 12:18:39;;;;;;;8.27;4.55;;;19.80;91.20;;;;;;5065936;28;20128;-43
2022/05/25 12:21:07;;;;;;;9.13;4.85;;;19.90;90.40;;;;;;5068662;28;20052;-44
2022/05/25 12:23:34;;;;;;;9.55;4.18;;;20.00;90.20;;;;;;5068319;28;20084;-44
2022/05/25 12:26:04;;;;;;;9.13;4.43;;;20.20;90.50;;;;;;5069474;28;20055;-44
2022/05/25 12:28:32;;;;;;;8.88;3.38;;;20.30;90.10;;;;;;5055569;28;20055;-43
2022/05/25 12:31:01;;;;;;;6.15;3.53;;;20.50;88.30;;;;;;5066135;28;20412;-44
2022/05/25 12:33:29;;;;;;;6.38;3.00;;;20.50;87.30;;;;;;5056569;28;20095;-44
2022/05/25 12:35:56;;;;;;;6.93;3.20;;;20.60;86.80;;;;;;5069445;28;20048;-44
2022/05/25 12:38:23;;;;;;;9.43;4.03;;;20.50;85.60;;;;;;5072116;28;20049;-43
2022/05/25 12:40:50;;;;;;;9.25;4.03;;;20.40;85.60;;;;;;5063084;28;20093;-44
2022/05/25 12:43:52;;;;;;;5.63;3.05;;;20.20;86.40;;;;;;5061448;28;20045;-44
2022/05/25 12:49:37;;;;;;;5.65;2.30;;;20.20;85.90;;;;;;5064861;28;20048;-44
2022/05/25 12:52:34;;;;;;;7.40;2.58;;;20.30;85.20;;;;;;5052708;28;20071;-44
2022/05/25 12:55:01;;;;;;;6.70;2.05;;;20.50;84.50;;;;;;5059788;28;20405;-44
2022/05/25 12:57:37;;;;;;;6.88;1.77;;;20.50;82.50;;;;;;5049974;28;20504;-44
2022/05/25 13:00:15;;;;;;;6.55;1.92;;;20.50;83.20;;;;;;5049306;28;20057;-43
2022/05/25 13:02:41;;;;;;;5.20;1.10;;;20.60;83.10;;;;;;5063016;28;20056;-44
2022/05/25 13:05:13;;;;;;;6.03;1.40;;;20.60;82.30;;;;;;5060516;28;20056;-44
2022/05/25 13:07:45;;;;;;;5.18;1.30;;;20.60;80.20;;;;;;5051343;28;20056;-44
2022/05/25 13:10:20;;;;;;;;;;;20.70;78.80;;;;;;5047657;28;20045;-44
2022/05/25 13:12:48;;;;;;;7.22;1.27;;;20.70;77.60;;;;;;5043325;28;19925;-43
2022/05/25 13:15:46;;;;;;;7.80;1.25;;;20.80;78.50;;;;;;5066597;28;20090;-43
2022/05/25 13:18:47;;;;;;;6.15;1.73;;;20.90;77.60;;;;;;4973352;28;20061;-43